createdAt,value
2019-03-29T00:00:58.951Z,10.30
2019-03-29T00:03:28.655Z,10.40
2019-03-29T00:05:58.463Z,10.40
2019-03-29T00:08:28.340Z,10.30
2019-03-29T00:10:58.094Z,10.30
2019-03-29T00:13:28.326Z,10.20
2019-03-29T00:15:57.999Z,10.20
2019-03-29T00:18:27.866Z,10.20
2019-03-29T00:20:57.551Z,10.30
2019-03-29T00:23:27.271Z,10.30
2019-03-29T00:25:57.022Z,10.20
2019-03-29T00:28:26.810Z,10.20
2019-03-29T00:30:56.483Z,10.20
2019-03-29T00:33:26.194Z,10.10
2019-03-29T00:35:56.052Z,10.10
2019-03-29T00:38:25.921Z,10.00
2019-03-29T00:40:55.703Z,10.00
2019-03-29T00:43:25.454Z,10.00
2019-03-29T00:45:55.227Z,9.90
2019-03-29T00:48:25.055Z,9.90
2019-03-29T00:50:54.843Z,9.80
2019-03-29T00:53:24.586Z,9.80
2019-03-29T00:55:54.311Z,9.80
2019-03-29T00:58:23.982Z,9.70
2019-03-29T01:00:53.787Z,9.60
2019-03-29T01:03:23.527Z,9.60
2019-03-29T01:05:53.234Z,9.60
2019-03-29T01:08:22.912Z,9.60
2019-03-29T01:10:52.622Z,9.60
2019-03-29T01:13:22.302Z,9.50
2019-03-29T01:15:52.022Z,9.50
2019-03-29T01:18:21.779Z,9.40
2019-03-29T01:20:51.691Z,9.40
2019-03-29T01:23:21.377Z,9.30
2019-03-29T01:25:51.091Z,9.30
2019-03-29T01:28:20.776Z,9.20
2019-03-29T01:30:50.504Z,9.20
2019-03-29T01:33:20.243Z,9.10
2019-03-29T01:35:50.286Z,9.00
2019-03-29T01:38:21.993Z,8.90
2019-03-29T01:40:51.561Z,8.90
2019-03-29T01:43:21.375Z,8.70
2019-03-29T01:45:51.079Z,8.70
2019-03-29T01:48:20.790Z,8.60
2019-03-29T01:50:50.522Z,8.50
2019-03-29T01:53:20.258Z,8.50
2019-03-29T01:55:49.987Z,8.40
2019-03-29T01:58:19.684Z,8.30
2019-03-29T02:00:49.455Z,8.30
2019-03-29T02:03:19.195Z,8.20
2019-03-29T02:05:48.880Z,8.10
2019-03-29T02:08:18.652Z,8.00
2019-03-29T02:10:49.036Z,8.00
2019-03-29T02:13:18.991Z,7.90
2019-03-29T02:15:49.139Z,7.80
2019-03-29T02:18:18.851Z,7.80
2019-03-29T02:20:50.008Z,7.70
2019-03-29T02:23:19.983Z,7.70
2019-03-29T02:25:49.736Z,7.60
2019-03-29T02:28:19.519Z,7.50
2019-03-29T02:30:49.312Z,7.50
2019-03-29T02:33:20.579Z,7.40
2019-03-29T02:35:50.488Z,7.40
2019-03-29T02:38:20.191Z,7.40
2019-03-29T02:40:50.939Z,7.40
2019-03-29T02:43:21.211Z,7.30
2019-03-29T02:45:51.039Z,7.30
2019-03-29T02:48:20.752Z,7.20
2019-03-29T02:50:50.520Z,7.20
2019-03-29T02:53:20.306Z,7.10
2019-03-29T02:55:50.052Z,7.10
2019-03-29T02:58:19.841Z,7.10
2019-03-29T03:00:49.733Z,7.10
2019-03-29T03:03:19.477Z,7.10
2019-03-29T03:05:49.232Z,7.20
2019-03-29T03:08:19.047Z,7.20
2019-03-29T03:10:48.810Z,7.20
2019-03-29T03:13:18.570Z,7.30
2019-03-29T03:15:48.426Z,7.40
2019-03-29T03:18:18.259Z,7.50
2019-03-29T03:20:48.052Z,7.50
2019-03-29T03:23:17.741Z,7.50
2019-03-29T03:25:47.617Z,7.60
2019-03-29T03:28:17.362Z,7.60
2019-03-29T03:30:47.140Z,7.60
2019-03-29T03:33:16.904Z,7.60
2019-03-29T03:35:46.619Z,7.60
2019-03-29T03:38:16.374Z,7.50
2019-03-29T03:40:46.166Z,7.40
2019-03-29T03:43:15.920Z,7.30
2019-03-29T03:45:45.779Z,7.30
2019-03-29T03:48:15.466Z,7.20
2019-03-29T03:50:45.267Z,7.30
2019-03-29T03:53:14.958Z,7.30
2019-03-29T03:55:44.795Z,7.40
2019-03-29T03:58:14.908Z,7.40
2019-03-29T04:00:56.952Z,7.40
2019-03-29T04:03:27.987Z,7.30
2019-03-29T04:05:58.190Z,7.20
2019-03-29T04:08:28.436Z,7.20
2019-03-29T04:10:58.222Z,7.30
2019-03-29T04:13:27.969Z,7.30
2019-03-29T04:15:57.780Z,7.20
2019-03-29T04:18:27.487Z,7.10
2019-03-29T04:20:57.248Z,7.10
2019-03-29T04:23:27.081Z,7.00
2019-03-29T04:25:56.895Z,7.10
2019-03-29T04:28:26.676Z,7.20
2019-03-29T04:30:56.452Z,7.20
2019-03-29T04:33:26.199Z,7.20
2019-03-29T04:35:55.978Z,7.20
2019-03-29T04:38:25.728Z,7.20
2019-03-29T04:40:55.455Z,7.10
2019-03-29T04:43:25.302Z,7.10
2019-03-29T04:45:55.076Z,7.00
2019-03-29T04:48:24.763Z,7.00
2019-03-29T04:50:54.503Z,7.00
2019-03-29T04:53:24.188Z,7.00
2019-03-29T04:55:54.263Z,6.90
2019-03-29T04:58:23.951Z,6.90
2019-03-29T05:00:53.719Z,6.80
2019-03-29T05:03:23.495Z,6.80
2019-03-29T05:05:53.180Z,6.80
2019-03-29T05:08:22.959Z,6.70
2019-03-29T05:10:52.642Z,6.70
2019-03-29T05:13:22.459Z,6.60
2019-03-29T05:15:52.228Z,6.60
2019-03-29T05:18:22.012Z,6.60
2019-03-29T05:20:51.774Z,6.50
2019-03-29T05:23:21.498Z,6.50
2019-03-29T05:25:51.256Z,6.50
2019-03-29T05:28:20.967Z,6.50
2019-03-29T05:30:50.656Z,6.50
2019-03-29T05:33:20.438Z,6.40
2019-03-29T05:35:50.128Z,6.40
2019-03-29T05:38:20.012Z,6.40
2019-03-29T05:40:49.827Z,6.40
2019-03-29T05:43:19.551Z,6.40
2019-03-29T05:45:49.385Z,6.40
2019-03-29T05:48:19.135Z,6.40
2019-03-29T05:50:49.003Z,6.50
2019-03-29T05:53:18.930Z,6.70
2019-03-29T05:55:48.691Z,7.00
2019-03-29T05:58:18.398Z,7.10
2019-03-29T06:00:48.283Z,7.20
2019-03-29T06:03:18.006Z,7.20
2019-03-29T06:05:47.783Z,7.30
2019-03-29T06:08:17.486Z,7.40
2019-03-29T06:10:49.413Z,7.60
2019-03-29T06:13:18.765Z,7.80
2019-03-29T06:15:48.514Z,7.90
2019-03-29T06:18:18.216Z,7.90
2019-03-29T06:20:47.976Z,8.30
2019-03-29T06:23:17.934Z,8.50
2019-03-29T06:25:47.683Z,8.70
2019-03-29T06:28:17.462Z,9.00
2019-03-29T06:30:48.091Z,9.20
2019-03-29T06:33:17.923Z,9.60
2019-03-29T06:35:50.641Z,10.00
2019-03-29T06:38:22.899Z,10.20
2019-03-29T06:41:02.988Z,10.60
2019-03-29T06:43:24.146Z,10.90
2019-03-29T06:45:53.959Z,11.20
2019-03-29T06:48:23.657Z,11.40
2019-03-29T06:50:53.630Z,11.60
2019-03-29T06:53:23.450Z,11.80
2019-03-29T06:55:53.308Z,12.00
2019-03-29T06:58:23.054Z,12.20
2019-03-29T07:00:52.739Z,12.40
2019-03-29T07:03:22.620Z,12.50
2019-03-29T07:05:52.355Z,12.60
2019-03-29T07:08:22.283Z,12.80
2019-03-29T07:10:51.963Z,13.10
2019-03-29T07:13:21.752Z,13.10
2019-03-29T07:15:51.455Z,13.20
2019-03-29T07:18:21.371Z,13.40
2019-03-29T07:20:51.143Z,13.50
2019-03-29T07:23:20.859Z,13.60
2019-03-29T07:25:51.024Z,13.70
2019-03-29T07:28:20.748Z,13.80
2019-03-29T07:30:50.474Z,14.00
2019-03-29T07:33:20.275Z,14.00
2019-03-29T07:35:50.038Z,14.10
2019-03-29T07:38:19.895Z,14.30
2019-03-29T07:40:49.594Z,14.30
2019-03-29T07:43:19.299Z,14.40
2019-03-29T07:45:49.168Z,14.50
2019-03-29T07:48:18.880Z,14.60
2019-03-29T07:50:48.673Z,14.60
2019-03-29T07:53:18.458Z,14.60
2019-03-29T07:55:48.249Z,14.80
2019-03-29T07:58:17.960Z,14.80
2019-03-29T08:00:47.987Z,14.90
2019-03-29T08:03:20.939Z,14.80
2019-03-29T08:05:49.209Z,14.60
2019-03-29T08:08:24.568Z,14.40
2019-03-29T08:10:53.464Z,14.20
2019-03-29T08:13:21.900Z,14.10
2019-03-29T08:15:53.982Z,14.10
2019-03-29T08:18:23.763Z,14.20
2019-03-29T08:20:53.447Z,14.20
2019-03-29T08:23:23.260Z,14.20
2019-03-29T08:25:53.125Z,14.20
2019-03-29T08:28:22.835Z,14.10
2019-03-29T08:30:52.533Z,14.10
2019-03-29T08:33:22.270Z,14.20
2019-03-29T08:35:52.105Z,14.20
2019-03-29T08:38:21.847Z,14.30
2019-03-29T08:40:51.562Z,14.30
2019-03-29T08:43:21.250Z,14.50
2019-03-29T08:45:51.038Z,14.40
2019-03-29T08:48:21.303Z,14.50
2019-03-29T08:50:51.126Z,14.60
2019-03-29T08:53:21.011Z,14.60
2019-03-29T08:55:50.794Z,14.70
2019-03-29T08:58:20.612Z,14.70
2019-03-29T09:00:50.403Z,14.80
2019-03-29T09:03:20.135Z,14.80
2019-03-29T09:05:51.439Z,14.80
2019-03-29T09:08:21.121Z,14.60
2019-03-29T09:10:50.843Z,14.30
2019-03-29T09:13:20.686Z,14.40
2019-03-29T09:15:50.496Z,14.50
2019-03-29T09:18:20.264Z,14.70
2019-03-29T09:20:50.266Z,14.70
2019-03-29T09:23:20.150Z,14.70
2019-03-29T09:25:49.852Z,14.80
2019-03-29T09:28:21.001Z,14.90
2019-03-29T09:30:50.748Z,14.80
2019-03-29T09:33:20.439Z,14.90
2019-03-29T09:35:50.162Z,15.00
2019-03-29T09:38:23.041Z,15.10
2019-03-29T09:40:58.877Z,15.30
2019-03-29T09:43:26.565Z,15.50
2019-03-29T09:45:56.043Z,15.50
2019-03-29T09:48:25.743Z,15.50
2019-03-29T09:50:55.627Z,15.40
2019-03-29T09:53:25.445Z,15.50
2019-03-29T09:55:55.184Z,15.50
2019-03-29T09:58:24.871Z,15.60
2019-03-29T10:00:54.638Z,15.70
2019-03-29T10:03:24.322Z,15.40
2019-03-29T10:05:54.019Z,15.30
2019-03-29T10:08:23.787Z,15.20
2019-03-29T10:10:53.485Z,15.30
2019-03-29T10:13:23.342Z,15.30
2019-03-29T10:15:53.127Z,15.20
2019-03-29T10:18:22.877Z,15.20
2019-03-29T10:20:52.869Z,15.20
2019-03-29T10:23:22.651Z,15.20
2019-03-29T10:25:52.405Z,15.20
2019-03-29T10:28:22.217Z,15.20
2019-03-29T10:30:52.593Z,15.30
2019-03-29T10:33:22.431Z,15.30
2019-03-29T10:35:53.086Z,15.30
2019-03-29T10:38:23.183Z,15.40
2019-03-29T10:40:52.966Z,15.40
2019-03-29T10:43:23.143Z,15.30
2019-03-29T10:45:52.911Z,15.40
2019-03-29T10:48:22.619Z,15.40
2019-03-29T10:50:52.403Z,15.40
2019-03-29T10:53:22.137Z,15.30
2019-03-29T10:55:51.827Z,15.30
2019-03-29T10:58:21.621Z,15.50
2019-03-29T11:00:51.303Z,15.50
2019-03-29T11:03:21.008Z,15.50
2019-03-29T11:05:50.795Z,15.60
2019-03-29T11:08:20.697Z,15.60
2019-03-29T11:10:50.382Z,15.60
2019-03-29T11:13:20.092Z,15.60
2019-03-29T11:15:49.775Z,15.60
2019-03-29T11:18:19.563Z,15.80
2019-03-29T11:20:49.408Z,15.90
2019-03-29T11:23:19.287Z,16.00
2019-03-29T11:25:49.171Z,16.00
2019-03-29T11:28:19.031Z,16.10
2019-03-29T11:30:48.704Z,16.10
2019-03-29T11:33:18.414Z,16.20
2019-03-29T11:35:48.159Z,16.30
2019-03-29T11:38:17.863Z,16.40
2019-03-29T11:40:47.771Z,16.40
2019-03-29T11:43:26.494Z,16.40
2019-03-29T11:45:49.183Z,16.50
2019-03-29T11:48:18.969Z,16.50
2019-03-29T11:50:48.677Z,16.60
2019-03-29T11:53:18.404Z,16.70
2019-03-29T11:55:48.256Z,16.70
2019-03-29T11:58:17.960Z,16.70
2019-03-29T12:00:47.796Z,16.70
2019-03-29T12:03:17.655Z,16.80
2019-03-29T12:05:47.334Z,16.80
2019-03-29T12:08:17.211Z,16.80
2019-03-29T12:10:47.108Z,16.80
2019-03-29T12:13:16.889Z,16.80
2019-03-29T12:15:46.571Z,16.80
2019-03-29T12:18:16.439Z,16.70
2019-03-29T12:20:46.190Z,16.70
2019-03-29T12:23:15.967Z,16.70
2019-03-29T12:25:45.699Z,16.70
2019-03-29T12:28:15.583Z,16.70
2019-03-29T12:30:45.369Z,16.70
2019-03-29T12:33:16.071Z,16.70
2019-03-29T12:35:45.854Z,16.70
2019-03-29T12:38:15.580Z,16.80
2019-03-29T12:40:45.460Z,16.80
2019-03-29T12:43:15.778Z,16.80
2019-03-29T12:45:45.555Z,16.80
2019-03-29T12:48:15.315Z,16.80
2019-03-29T12:50:45.198Z,16.80
2019-03-29T12:53:14.890Z,16.80
2019-03-29T12:55:44.835Z,16.80
2019-03-29T12:58:14.674Z,16.80
2019-03-29T13:00:44.675Z,16.90
2019-03-29T13:03:14.495Z,16.90
2019-03-29T13:05:44.214Z,16.80
2019-03-29T13:08:14.074Z,16.90
2019-03-29T13:10:43.788Z,16.80
2019-03-29T13:13:13.559Z,16.80
2019-03-29T13:15:43.371Z,16.70
2019-03-29T13:18:13.215Z,16.70
2019-03-29T13:20:43.573Z,16.60
2019-03-29T13:23:13.400Z,16.60
2019-03-29T13:25:43.267Z,16.70
2019-03-29T13:28:13.021Z,16.70
2019-03-29T13:30:42.907Z,16.60
2019-03-29T13:33:12.747Z,16.60
2019-03-29T13:35:44.531Z,16.60
2019-03-29T13:38:13.927Z,16.60
2019-03-29T13:40:43.710Z,16.60
2019-03-29T13:43:13.395Z,16.60
2019-03-29T13:45:43.103Z,16.60
2019-03-29T13:48:12.788Z,16.60
2019-03-29T13:50:42.525Z,16.60
2019-03-29T13:53:12.208Z,16.60
2019-03-29T13:55:41.983Z,16.60
2019-03-29T13:58:11.735Z,16.60
2019-03-29T14:00:41.439Z,16.50
2019-03-29T14:03:11.104Z,16.50
2019-03-29T14:05:40.815Z,16.50
2019-03-29T14:08:10.594Z,16.60
2019-03-29T14:10:40.299Z,16.60
2019-03-29T14:13:09.979Z,16.50
2019-03-29T14:15:39.718Z,16.60
2019-03-29T14:18:09.453Z,16.50
2019-03-29T14:20:39.269Z,16.50
2019-03-29T14:23:08.946Z,16.40
2019-03-29T14:25:38.693Z,16.50
2019-03-29T14:28:08.481Z,16.50
2019-03-29T14:30:38.335Z,16.40
2019-03-29T14:33:08.086Z,16.40
2019-03-29T14:35:37.847Z,16.50
2019-03-29T14:38:07.628Z,16.40
2019-03-29T14:40:39.715Z,16.30
2019-03-29T14:43:09.515Z,16.30
2019-03-29T14:45:39.187Z,16.30
2019-03-29T14:48:08.895Z,16.30
2019-03-29T14:50:38.794Z,16.30
2019-03-29T14:53:08.639Z,16.30
2019-03-29T14:55:38.456Z,16.30
2019-03-29T14:58:08.391Z,16.30
2019-03-29T15:00:39.819Z,16.30
2019-03-29T15:03:10.366Z,16.20
2019-03-29T15:05:40.623Z,16.20
2019-03-29T15:08:10.726Z,16.20
2019-03-29T15:10:40.509Z,16.20
2019-03-29T15:13:10.207Z,16.20
2019-03-29T15:15:39.891Z,16.10
2019-03-29T15:18:09.691Z,16.10
2019-03-29T15:20:52.695Z,16.10
2019-03-29T15:23:10.844Z,16.10
2019-03-29T15:25:40.934Z,16.10
2019-03-29T15:28:11.135Z,16.10
2019-03-29T15:30:40.969Z,16.00
2019-03-29T15:33:10.756Z,16.00
2019-03-29T15:35:40.539Z,15.90
2019-03-29T15:38:10.366Z,15.90
2019-03-29T15:40:40.051Z,15.90
2019-03-29T15:43:10.007Z,15.90
2019-03-29T15:45:39.810Z,15.80
2019-03-29T15:48:09.684Z,15.80
2019-03-29T15:50:39.658Z,15.80
2019-03-29T15:53:09.529Z,15.80
2019-03-29T15:55:39.283Z,15.70
2019-03-29T15:58:09.167Z,15.70
2019-03-29T16:00:38.927Z,15.70
2019-03-29T16:03:08.632Z,15.60
2019-03-29T16:05:38.380Z,15.60
2019-03-29T16:08:08.144Z,15.60
2019-03-29T16:10:41.046Z,15.50
2019-03-29T16:13:09.467Z,15.50
2019-03-29T16:15:39.162Z,15.50
2019-03-29T16:18:08.927Z,15.50
2019-03-29T16:20:38.687Z,15.40
2019-03-29T16:23:08.530Z,15.40
2019-03-29T16:25:38.318Z,15.40
2019-03-29T16:28:08.224Z,15.30
2019-03-29T16:30:38.048Z,15.30
2019-03-29T16:33:07.830Z,15.30
2019-03-29T16:35:37.738Z,15.20
2019-03-29T16:38:07.414Z,15.20
2019-03-29T16:40:37.499Z,15.20
2019-03-29T16:43:08.324Z,15.10
2019-03-29T16:45:47.674Z,15.10
2019-03-29T16:48:09.515Z,15.10
2019-03-29T16:50:39.251Z,15.10
2019-03-29T16:53:09.011Z,15.00
2019-03-29T16:55:38.834Z,14.90
2019-03-29T16:58:08.612Z,14.90
2019-03-29T17:00:38.531Z,14.80
2019-03-29T17:03:08.285Z,14.80
2019-03-29T17:05:38.382Z,14.70
2019-03-29T17:08:08.142Z,14.70
2019-03-29T17:10:37.863Z,14.60
2019-03-29T17:13:07.721Z,14.60
2019-03-29T17:15:37.606Z,14.50
2019-03-29T17:18:07.439Z,14.50
2019-03-29T17:20:37.143Z,14.40
2019-03-29T17:23:06.824Z,14.40
2019-03-29T17:25:36.604Z,14.30
2019-03-29T17:28:06.440Z,14.20
2019-03-29T17:30:51.487Z,14.20
2019-03-29T17:33:22.566Z,14.10
2019-03-29T17:35:52.361Z,14.00
2019-03-29T17:38:22.094Z,13.90
2019-03-29T17:40:52.468Z,13.90
2019-03-29T17:43:22.240Z,13.80
2019-03-29T17:45:52.060Z,13.80
2019-03-29T17:48:21.750Z,13.70
2019-03-29T17:50:51.554Z,13.60
2019-03-29T17:53:21.279Z,13.60
2019-03-29T17:55:50.984Z,13.50
2019-03-29T17:58:20.786Z,13.50
2019-03-29T18:00:50.571Z,13.40
2019-03-29T18:03:20.463Z,13.30
2019-03-29T18:05:50.199Z,13.20
2019-03-29T18:08:19.880Z,13.20
2019-03-29T18:10:49.639Z,13.10
2019-03-29T18:13:19.400Z,13.00
2019-03-29T18:15:49.271Z,12.90
2019-03-29T18:18:18.965Z,12.80
2019-03-29T18:20:48.643Z,12.70
2019-03-29T18:23:18.415Z,12.70
2019-03-29T18:25:48.204Z,12.60
2019-03-29T18:28:17.929Z,12.50
2019-03-29T18:30:47.614Z,12.40
2019-03-29T18:33:17.404Z,12.30
2019-03-29T18:35:47.174Z,12.30
2019-03-29T18:38:16.895Z,12.20
2019-03-29T18:40:47.121Z,12.10
2019-03-29T18:43:17.022Z,12.10
2019-03-29T18:45:46.726Z,12.00
2019-03-29T18:48:16.510Z,11.90
2019-03-29T18:50:46.312Z,11.90
2019-03-29T18:53:16.063Z,11.80
2019-03-29T18:55:45.739Z,11.70
2019-03-29T18:58:15.466Z,11.60
2019-03-29T19:00:45.271Z,11.60
2019-03-29T19:03:15.143Z,11.50
2019-03-29T19:05:44.897Z,11.40
2019-03-29T19:08:14.751Z,11.40
2019-03-29T19:10:44.431Z,11.30
2019-03-29T19:13:14.215Z,11.20
2019-03-29T19:15:43.907Z,11.10
2019-03-29T19:18:13.883Z,11.10
2019-03-29T19:20:43.638Z,11.00
2019-03-29T19:23:17.276Z,10.90
2019-03-29T19:25:47.211Z,10.80
2019-03-29T19:28:16.998Z,10.70
2019-03-29T19:30:46.767Z,10.60
2019-03-29T19:33:16.488Z,10.60
2019-03-29T19:35:46.169Z,10.50
2019-03-29T19:38:15.871Z,10.40
2019-03-29T19:40:45.550Z,10.30
2019-03-29T19:43:15.462Z,10.20
2019-03-29T19:45:45.215Z,10.20
2019-03-29T19:48:15.030Z,10.10
2019-03-29T19:50:44.727Z,10.10
2019-03-29T19:53:14.439Z,10.00
2019-03-29T19:55:44.206Z,9.90
2019-03-29T19:58:14.159Z,9.90
2019-03-29T20:00:44.058Z,9.80
2019-03-29T20:03:13.822Z,9.70
2019-03-29T20:05:43.519Z,9.70
2019-03-29T20:08:13.208Z,9.60
2019-03-29T20:10:42.977Z,9.60
2019-03-29T20:13:12.730Z,9.50
2019-03-29T20:15:42.451Z,9.50
2019-03-29T20:18:12.219Z,9.40
2019-03-29T20:20:41.999Z,9.40
2019-03-29T20:23:11.762Z,9.30
2019-03-29T20:25:41.526Z,9.20
2019-03-29T20:28:11.274Z,9.20
2019-03-29T20:30:41.008Z,9.10
2019-03-29T20:33:13.431Z,9.10
2019-03-29T20:35:43.479Z,9.10
2019-03-29T20:38:13.262Z,9.00
2019-03-29T20:40:42.962Z,8.90
2019-03-29T20:43:12.707Z,8.90
2019-03-29T20:45:42.558Z,8.80
2019-03-29T20:48:13.910Z,8.80
2019-03-29T20:50:43.703Z,8.80
2019-03-29T20:53:13.550Z,8.70
2019-03-29T20:55:43.332Z,8.70
2019-03-29T20:58:13.089Z,8.70
2019-03-29T21:00:42.858Z,8.60
2019-03-29T21:03:12.531Z,8.60
2019-03-29T21:05:42.230Z,8.50
2019-03-29T21:08:11.997Z,8.50
2019-03-29T21:10:54.948Z,8.40
2019-03-29T21:13:13.321Z,8.40
2019-03-29T21:15:43.020Z,8.40
2019-03-29T21:18:12.698Z,8.40
2019-03-29T21:20:42.474Z,8.30
2019-03-29T21:23:12.146Z,8.30
2019-03-29T21:25:41.985Z,8.20
2019-03-29T21:28:11.731Z,8.20
2019-03-29T21:30:41.443Z,8.20
2019-03-29T21:33:11.206Z,8.10
2019-03-29T21:35:41.494Z,8.10
2019-03-29T21:38:11.235Z,8.00
2019-03-29T21:40:40.940Z,8.00
2019-03-29T21:43:10.614Z,8.00
2019-03-29T21:45:40.359Z,8.00
2019-03-29T21:48:27.433Z,8.00
2019-03-29T21:50:41.569Z,8.00
2019-03-29T21:53:11.311Z,7.90
2019-03-29T21:55:41.055Z,7.90
2019-03-29T21:58:10.750Z,7.80
2019-03-29T22:00:40.503Z,7.80
2019-03-29T22:03:10.287Z,7.70
2019-03-29T22:05:39.963Z,7.70
2019-03-29T22:08:09.663Z,7.60
2019-03-29T22:10:40.605Z,7.60
2019-03-29T22:13:10.387Z,7.60
2019-03-29T22:15:40.080Z,7.60
2019-03-29T22:18:09.783Z,7.50
2019-03-29T22:20:39.573Z,7.50
2019-03-29T22:23:09.447Z,7.50
2019-03-29T22:25:39.119Z,7.50
2019-03-29T22:28:08.822Z,7.40
2019-03-29T22:30:38.599Z,7.40
2019-03-29T22:33:08.311Z,7.40
2019-03-29T22:35:38.136Z,7.30
2019-03-29T22:38:07.835Z,7.30
2019-03-29T22:40:37.515Z,7.30
2019-03-29T22:43:07.542Z,7.20
2019-03-29T22:45:37.483Z,7.20
2019-03-29T22:48:07.262Z,7.20
2019-03-29T22:50:37.029Z,7.20
2019-03-29T22:53:06.734Z,7.10
2019-03-29T22:55:36.411Z,7.10
2019-03-29T22:58:06.189Z,7.10
2019-03-29T23:00:40.757Z,7.10
2019-03-29T23:03:10.535Z,7.10
2019-03-29T23:05:40.295Z,7.10
2019-03-29T23:08:10.006Z,7.00
2019-03-29T23:10:39.767Z,6.90
2019-03-29T23:13:09.699Z,6.90
2019-03-29T23:15:39.390Z,6.90
2019-03-29T23:18:09.269Z,6.90
2019-03-29T23:20:39.094Z,6.90
2019-03-29T23:23:09.027Z,6.80
2019-03-29T23:25:38.779Z,6.80
2019-03-29T23:28:08.479Z,6.80
2019-03-29T23:30:38.160Z,6.80
2019-03-29T23:33:07.859Z,6.70
2019-03-29T23:35:37.566Z,6.60
2019-03-29T23:38:07.347Z,6.60
2019-03-29T23:40:37.116Z,6.60
2019-03-29T23:43:06.787Z,6.60
2019-03-29T23:45:36.495Z,6.60
2019-03-29T23:48:06.171Z,6.50
2019-03-29T23:50:35.908Z,6.50
2019-03-29T23:53:05.777Z,6.50
2019-03-29T23:55:35.473Z,6.50
2019-03-29T23:58:05.224Z,6.50
